sensor_id;sensor_type;location;lat;lon;timestamp;P1;durP1;ratioP1;P2;durP2;ratioP2
47844;SDS011;33605;48.822;8.796;2023-04-07T00:00:21;14.63;;;8.20;;
47844;SDS011;33605;48.822;8.796;2023-04-07T00:02:47;10.40;;;8.00;;
47844;SDS011;33605;48.822;8.796;2023-04-07T00:05:14;10.30;;;8.00;;
47844;SDS011;33605;48.822;8.796;2023-04-07T00:07:40;10.10;;;8.00;;
47844;SDS011;33605;48.822;8.796;2023-04-07T00:10:06;9.80;;;8.03;;
47844;SDS011;33605;48.822;8.796;2023-04-07T00:12:32;9.57;;;8.57;;
47844;SDS011;33605;48.822;8.796;2023-04-07T00:14:58;9.90;;;8.10;;
47844;SDS011;33605;48.822;8.796;2023-04-07T00:17:24;9.67;;;7.93;;
47844;SDS011;33605;48.822;8.796;2023-04-07T00:19:51;12.07;;;8.37;;
47844;SDS011;33605;48.822;8.796;2023-04-07T00:22:17;9.70;;;7.57;;
47844;SDS011;33605;48.822;8.796;2023-04-07T00:24:43;12.17;;;7.27;;
47844;SDS011;33605;48.822;8.796;2023-04-07T00:27:09;13.53;;;8.47;;
47844;SDS011;33605;48.822;8.796;2023-04-07T00:29:35;11.90;;;7.53;;
47844;SDS011;33605;48.822;8.796;2023-04-07T00:32:01;8.67;;;7.17;;
47844;SDS011;33605;48.822;8.796;2023-04-07T00:34:27;10.13;;;8.13;;
47844;SDS011;33605;48.822;8.796;2023-04-07T00:36:53;11.50;;;7.80;;
47844;SDS011;33605;48.822;8.796;2023-04-07T00:39:19;9.27;;;7.43;;
47844;SDS011;33605;48.822;8.796;2023-04-07T00:41:45;9.30;;;6.80;;
47844;SDS011;33605;48.822;8.796;2023-04-07T00:44:12;11.43;;;7.90;;
47844;SDS011;33605;48.822;8.796;2023-04-07T00:46:38;10.40;;;7.40;;
47844;SDS011;33605;48.822;8.796;2023-04-07T00:49:05;8.77;;;7.70;;
47844;SDS011;33605;48.822;8.796;2023-04-07T00:51:31;9.83;;;8.17;;
47844;SDS011;33605;48.822;8.796;2023-04-07T00:53:57;10.60;;;8.53;;
47844;SDS011;33605;48.822;8.796;2023-04-07T00:56:24;9.83;;;7.80;;
47844;SDS011;33605;48.822;8.796;2023-04-07T00:58:50;9.27;;;7.80;;
47844;SDS011;33605;48.822;8.796;2023-04-07T01:01:23;13.27;;;8.23;;
47844;SDS011;33605;48.822;8.796;2023-04-07T01:03:51;11.20;;;7.30;;
47844;SDS011;33605;48.822;8.796;2023-04-07T01:06:19;9.80;;;7.63;;
47844;SDS011;33605;48.822;8.796;2023-04-07T01:08:57;11.87;;;7.50;;
47844;SDS011;33605;48.822;8.796;2023-04-07T01:11:43;10.57;;;7.60;;
47844;SDS011;33605;48.822;8.796;2023-04-07T01:14:13;10.70;;;8.43;;
47844;SDS011;33605;48.822;8.796;2023-04-07T01:16:47;8.37;;;7.20;;
47844;SDS011;33605;48.822;8.796;2023-04-07T01:21:55;8.80;;;7.43;;
47844;SDS011;33605;48.822;8.796;2023-04-07T01:24:33;9.30;;;7.37;;
47844;SDS011;33605;48.822;8.796;2023-04-07T01:27:08;9.63;;;8.10;;
47844;SDS011;33605;48.822;8.796;2023-04-07T01:29:40;12.03;;;8.77;;
47844;SDS011;33605;48.822;8.796;2023-04-07T01:32:11;12.10;;;8.97;;
47844;SDS011;33605;48.822;8.796;2023-04-07T01:34:39;9.70;;;7.73;;
47844;SDS011;33605;48.822;8.796;2023-04-07T01:37:06;11.57;;;8.30;;
47844;SDS011;33605;48.822;8.796;2023-04-07T01:39:33;10.00;;;8.60;;
47844;SDS011;33605;48.822;8.796;2023-04-07T01:41:59;7.57;;;6.77;;
47844;SDS011;33605;48.822;8.796;2023-04-07T01:44:26;8.93;;;7.13;;
47844;SDS011;33605;48.822;8.796;2023-04-07T01:46:53;9.53;;;7.07;;
47844;SDS011;33605;48.822;8.796;2023-04-07T01:49:19;8.97;;;7.93;;
47844;SDS011;33605;48.822;8.796;2023-04-07T01:51:45;12.90;;;8.50;;
47844;SDS011;33605;48.822;8.796;2023-04-07T01:54:14;11.57;;;7.60;;
47844;SDS011;33605;48.822;8.796;2023-04-07T01:56:40;10.07;;;7.57;;
47844;SDS011;33605;48.822;8.796;2023-04-07T01:59:06;11.30;;;7.83;;
47844;SDS011;33605;48.822;8.796;2023-04-07T02:01:32;10.37;;;8.63;;
47844;SDS011;33605;48.822;8.796;2023-04-07T02:04:04;8.33;;;7.10;;
47844;SDS011;33605;48.822;8.796;2023-04-07T02:06:43;11.77;;;8.40;;
47844;SDS011;33605;48.822;8.796;2023-04-07T02:09:13;12.70;;;8.20;;
47844;SDS011;33605;48.822;8.796;2023-04-07T02:11:40;10.97;;;7.90;;
47844;SDS011;33605;48.822;8.796;2023-04-07T02:14:07;10.93;;;8.33;;
47844;SDS011;33605;48.822;8.796;2023-04-07T02:16:33;9.70;;;7.50;;
47844;SDS011;33605;48.822;8.796;2023-04-07T02:19:00;12.53;;;8.40;;
47844;SDS011;33605;48.822;8.796;2023-04-07T02:21:27;10.50;;;8.37;;
47844;SDS011;33605;48.822;8.796;2023-04-07T02:23:54;9.27;;;6.97;;
47844;SDS011;33605;48.822;8.796;2023-04-07T02:26:20;8.43;;;7.10;;
47844;SDS011;33605;48.822;8.796;2023-04-07T02:28:46;9.67;;;7.70;;
47844;SDS011;33605;48.822;8.796;2023-04-07T02:31:12;11.87;;;8.43;;
47844;SDS011;33605;48.822;8.796;2023-04-07T02:33:38;11.83;;;8.10;;
47844;SDS011;33605;48.822;8.796;2023-04-07T02:36:04;11.07;;;8.50;;
47844;SDS011;33605;48.822;8.796;2023-04-07T02:38:31;9.63;;;7.83;;
47844;SDS011;33605;48.822;8.796;2023-04-07T02:40:57;10.83;;;7.70;;
47844;SDS011;33605;48.822;8.796;2023-04-07T02:43:23;9.60;;;8.23;;
47844;SDS011;33605;48.822;8.796;2023-04-07T02:45:49;9.83;;;7.53;;
47844;SDS011;33605;48.822;8.796;2023-04-07T02:48:15;9.03;;;7.50;;
47844;SDS011;33605;48.822;8.796;2023-04-07T02:50:41;11.37;;;7.53;;
47844;SDS011;33605;48.822;8.796;2023-04-07T02:53:07;9.77;;;7.63;;
47844;SDS011;33605;48.822;8.796;2023-04-07T02:55:34;11.50;;;7.23;;
47844;SDS011;33605;48.822;8.796;2023-04-07T02:58:01;9.93;;;7.80;;
47844;SDS011;33605;48.822;8.796;2023-04-07T03:00:27;10.40;;;7.57;;
47844;SDS011;33605;48.822;8.796;2023-04-07T03:02:53;10.40;;;7.60;;
47844;SDS011;33605;48.822;8.796;2023-04-07T03:05:19;14.67;;;8.50;;
47844;SDS011;33605;48.822;8.796;2023-04-07T03:07:45;9.70;;;7.13;;
47844;SDS011;33605;48.822;8.796;2023-04-07T03:10:11;12.20;;;7.43;;
47844;SDS011;33605;48.822;8.796;2023-04-07T03:12:37;10.60;;;7.57;;
47844;SDS011;33605;48.822;8.796;2023-04-07T03:15:03;10.13;;;7.77;;
47844;SDS011;33605;48.822;8.796;2023-04-07T03:17:29;8.83;;;7.03;;
47844;SDS011;33605;48.822;8.796;2023-04-07T03:19:55;8.63;;;7.07;;
47844;SDS011;33605;48.822;8.796;2023-04-07T03:22:21;11.40;;;7.50;;
47844;SDS011;33605;48.822;8.796;2023-04-07T03:24:47;10.23;;;7.47;;
47844;SDS011;33605;48.822;8.796;2023-04-07T03:27:13;12.50;;;7.10;;
47844;SDS011;33605;48.822;8.796;2023-04-07T03:29:41;8.20;;;6.80;;
47844;SDS011;33605;48.822;8.796;2023-04-07T03:32:07;14.00;;;8.07;;
47844;SDS011;33605;48.822;8.796;2023-04-07T03:34:33;11.57;;;6.80;;
47844;SDS011;33605;48.822;8.796;2023-04-07T03:36:59;13.00;;;7.60;;
47844;SDS011;33605;48.822;8.796;2023-04-07T03:39:25;7.37;;;5.90;;
47844;SDS011;33605;48.822;8.796;2023-04-07T03:41:51;10.30;;;7.17;;
47844;SDS011;33605;48.822;8.796;2023-04-07T03:44:17;9.20;;;7.13;;
47844;SDS011;33605;48.822;8.796;2023-04-07T03:46:43;10.87;;;7.07;;
47844;SDS011;33605;48.822;8.796;2023-04-07T03:49:11;9.10;;;7.00;;
47844;SDS011;33605;48.822;8.796;2023-04-07T03:51:37;9.30;;;6.77;;
47844;SDS011;33605;48.822;8.796;2023-04-07T03:54:03;10.87;;;7.20;;
47844;SDS011;33605;48.822;8.796;2023-04-07T03:56:29;12.00;;;8.70;;
47844;SDS011;33605;48.822;8.796;2023-04-07T03:58:55;9.33;;;7.20;;
47844;SDS011;33605;48.822;8.796;2023-04-07T04:01:21;9.23;;;7.50;;
47844;SDS011;33605;48.822;8.796;2023-04-07T04:03:48;11.03;;;7.13;;
47844;SDS011;33605;48.822;8.796;2023-04-07T04:06:15;8.40;;;6.77;;
47844;SDS011;33605;48.822;8.796;2023-04-07T04:08:41;8.47;;;7.00;;
47844;SDS011;33605;48.822;8.796;2023-04-07T04:11:07;8.63;;;7.17;;
47844;SDS011;33605;48.822;8.796;2023-04-07T04:13:33;9.60;;;7.47;;
47844;SDS011;33605;48.822;8.796;2023-04-07T04:15:59;8.07;;;6.63;;
47844;SDS011;33605;48.822;8.796;2023-04-07T04:18:25;9.83;;;7.67;;
47844;SDS011;33605;48.822;8.796;2023-04-07T04:20:51;11.57;;;8.17;;
47844;SDS011;33605;48.822;8.796;2023-04-07T04:23:17;9.90;;;7.53;;
47844;SDS011;33605;48.822;8.796;2023-04-07T04:25:43;9.27;;;7.93;;
47844;SDS011;33605;48.822;8.796;2023-04-07T04:28:09;11.33;;;8.03;;
47844;SDS011;33605;48.822;8.796;2023-04-07T04:30:35;7.77;;;6.80;;
47844;SDS011;33605;48.822;8.796;2023-04-07T04:33:01;9.23;;;7.23;;
47844;SDS011;33605;48.822;8.796;2023-04-07T04:35:27;8.73;;;6.73;;
47844;SDS011;33605;48.822;8.796;2023-04-07T04:37:53;11.00;;;8.17;;
47844;SDS011;33605;48.822;8.796;2023-04-07T04:40:19;10.50;;;8.27;;
47844;SDS011;33605;48.822;8.796;2023-04-07T04:42:45;8.70;;;6.67;;
47844;SDS011;33605;48.822;8.796;2023-04-07T04:45:11;8.57;;;6.07;;
47844;SDS011;33605;48.822;8.796;2023-04-07T04:47:37;9.03;;;7.33;;
47844;SDS011;33605;48.822;8.796;2023-04-07T04:50:05;10.53;;;7.43;;
47844;SDS011;33605;48.822;8.796;2023-04-07T04:52:31;10.03;;;7.57;;
47844;SDS011;33605;48.822;8.796;2023-04-07T04:54:58;10.60;;;7.87;;
47844;SDS011;33605;48.822;8.796;2023-04-07T04:57:24;7.57;;;6.73;;
47844;SDS011;33605;48.822;8.796;2023-04-07T04:59:50;7.93;;;6.60;;
47844;SDS011;33605;48.822;8.796;2023-04-07T05:02:16;9.73;;;7.20;;
47844;SDS011;33605;48.822;8.796;2023-04-07T05:04:42;9.23;;;7.60;;
47844;SDS011;33605;48.822;8.796;2023-04-07T05:07:08;9.13;;;7.03;;
47844;SDS011;33605;48.822;8.796;2023-04-07T05:09:34;8.70;;;6.50;;
47844;SDS011;33605;48.822;8.796;2023-04-07T05:12:00;8.60;;;6.70;;
47844;SDS011;33605;48.822;8.796;2023-04-07T05:14:27;10.33;;;6.67;;
47844;SDS011;33605;48.822;8.796;2023-04-07T05:16:53;8.43;;;6.20;;
47844;SDS011;33605;48.822;8.796;2023-04-07T05:19:19;8.43;;;6.60;;
47844;SDS011;33605;48.822;8.796;2023-04-07T05:21:45;8.50;;;6.20;;
47844;SDS011;33605;48.822;8.796;2023-04-07T05:24:11;8.63;;;7.27;;
47844;SDS011;33605;48.822;8.796;2023-04-07T05:26:37;8.60;;;6.13;;
47844;SDS011;33605;48.822;8.796;2023-04-07T05:29:03;8.73;;;7.20;;
47844;SDS011;33605;48.822;8.796;2023-04-07T05:31:29;9.10;;;7.50;;
47844;SDS011;33605;48.822;8.796;2023-04-07T05:33:55;6.70;;;5.83;;
47844;SDS011;33605;48.822;8.796;2023-04-07T05:36:21;10.40;;;7.80;;
47844;SDS011;33605;48.822;8.796;2023-04-07T05:38:47;11.53;;;7.73;;
47844;SDS011;33605;48.822;8.796;2023-04-07T05:41:13;9.20;;;8.17;;
47844;SDS011;33605;48.822;8.796;2023-04-07T05:43:40;9.57;;;7.27;;
47844;SDS011;33605;48.822;8.796;2023-04-07T05:46:06;10.07;;;6.70;;
47844;SDS011;33605;48.822;8.796;2023-04-07T05:48:31;8.17;;;6.73;;
47844;SDS011;33605;48.822;8.796;2023-04-07T05:50:57;10.17;;;7.70;;
47844;SDS011;33605;48.822;8.796;2023-04-07T05:53:24;12.00;;;8.27;;
47844;SDS011;33605;48.822;8.796;2023-04-07T05:55:49;10.20;;;7.70;;
47844;SDS011;33605;48.822;8.796;2023-04-07T05:58:15;11.37;;;7.77;;
47844;SDS011;33605;48.822;8.796;2023-04-07T06:00:41;8.20;;;6.77;;
47844;SDS011;33605;48.822;8.796;2023-04-07T06:03:08;9.53;;;7.63;;
47844;SDS011;33605;48.822;8.796;2023-04-07T06:05:34;7.40;;;6.27;;
47844;SDS011;33605;48.822;8.796;2023-04-07T06:08:00;9.90;;;7.70;;
47844;SDS011;33605;48.822;8.796;2023-04-07T06:10:26;11.93;;;7.70;;
47844;SDS011;33605;48.822;8.796;2023-04-07T06:12:52;7.93;;;6.50;;
47844;SDS011;33605;48.822;8.796;2023-04-07T06:15:18;6.70;;;5.87;;
47844;SDS011;33605;48.822;8.796;2023-04-07T06:17:44;8.07;;;6.80;;
47844;SDS011;33605;48.822;8.796;2023-04-07T06:20:10;7.50;;;6.23;;
47844;SDS011;33605;48.822;8.796;2023-04-07T06:22:37;7.70;;;5.70;;
47844;SDS011;33605;48.822;8.796;2023-04-07T06:25:03;9.37;;;7.07;;
47844;SDS011;33605;48.822;8.796;2023-04-07T06:27:30;10.53;;;7.37;;
47844;SDS011;33605;48.822;8.796;2023-04-07T06:29:57;8.70;;;7.20;;
47844;SDS011;33605;48.822;8.796;2023-04-07T06:32:23;9.60;;;7.33;;
47844;SDS011;33605;48.822;8.796;2023-04-07T06:34:49;8.57;;;7.10;;
47844;SDS011;33605;48.822;8.796;2023-04-07T06:37:15;8.80;;;7.17;;
47844;SDS011;33605;48.822;8.796;2023-04-07T06:39:42;8.93;;;6.87;;
47844;SDS011;33605;48.822;8.796;2023-04-07T06:42:08;10.20;;;6.83;;
47844;SDS011;33605;48.822;8.796;2023-04-07T06:44:34;8.63;;;6.90;;
47844;SDS011;33605;48.822;8.796;2023-04-07T06:47:00;8.90;;;7.03;;
47844;SDS011;33605;48.822;8.796;2023-04-07T06:49:26;8.63;;;7.57;;
47844;SDS011;33605;48.822;8.796;2023-04-07T06:51:52;10.93;;;7.77;;
47844;SDS011;33605;48.822;8.796;2023-04-07T06:54:18;12.60;;;8.53;;
47844;SDS011;33605;48.822;8.796;2023-04-07T06:56:45;9.77;;;7.80;;
47844;SDS011;33605;48.822;8.796;2023-04-07T06:59:11;12.30;;;9.03;;
47844;SDS011;33605;48.822;8.796;2023-04-07T07:01:37;10.07;;;7.90;;
47844;SDS011;33605;48.822;8.796;2023-04-07T07:04:03;9.60;;;7.57;;
47844;SDS011;33605;48.822;8.796;2023-04-07T07:06:30;10.20;;;8.20;;
47844;SDS011;33605;48.822;8.796;2023-04-07T07:08:56;9.13;;;7.40;;
47844;SDS011;33605;48.822;8.796;2023-04-07T07:11:23;9.20;;;7.50;;
47844;SDS011;33605;48.822;8.796;2023-04-07T07:13:49;11.07;;;7.00;;
47844;SDS011;33605;48.822;8.796;2023-04-07T07:16:15;8.83;;;7.57;;
47844;SDS011;33605;48.822;8.796;2023-04-07T07:18:41;8.13;;;6.90;;
47844;SDS011;33605;48.822;8.796;2023-04-07T07:21:07;8.17;;;6.80;;
47844;SDS011;33605;48.822;8.796;2023-04-07T07:23:33;9.30;;;6.27;;
47844;SDS011;33605;48.822;8.796;2023-04-07T07:25:59;12.87;;;7.40;;
47844;SDS011;33605;48.822;8.796;2023-04-07T07:28:25;7.80;;;6.30;;
47844;SDS011;33605;48.822;8.796;2023-04-07T07:30:53;6.33;;;5.73;;
47844;SDS011;33605;48.822;8.796;2023-04-07T07:33:19;9.63;;;5.60;;
47844;SDS011;33605;48.822;8.796;2023-04-07T07:35:46;6.23;;;5.60;;
47844;SDS011;33605;48.822;8.796;2023-04-07T07:38:15;6.30;;;5.70;;
47844;SDS011;33605;48.822;8.796;2023-04-07T07:40:41;6.50;;;5.30;;
47844;SDS011;33605;48.822;8.796;2023-04-07T07:43:07;6.50;;;5.07;;
47844;SDS011;33605;48.822;8.796;2023-04-07T07:45:33;4.93;;;4.37;;
47844;SDS011;33605;48.822;8.796;2023-04-07T07:47:59;5.10;;;3.90;;
47844;SDS011;33605;48.822;8.796;2023-04-07T07:50:25;5.47;;;4.60;;
47844;SDS011;33605;48.822;8.796;2023-04-07T07:52:51;6.40;;;4.50;;
47844;SDS011;33605;48.822;8.796;2023-04-07T07:55:17;4.67;;;4.03;;
47844;SDS011;33605;48.822;8.796;2023-04-07T07:57:44;6.00;;;3.90;;
47844;SDS011;33605;48.822;8.796;2023-04-07T08:00:11;8.03;;;4.70;;
47844;SDS011;33605;48.822;8.796;2023-04-07T08:02:37;5.00;;;3.43;;
47844;SDS011;33605;48.822;8.796;2023-04-07T08:05:03;6.20;;;3.63;;
47844;SDS011;33605;48.822;8.796;2023-04-07T08:07:29;4.20;;;3.80;;
47844;SDS011;33605;48.822;8.796;2023-04-07T08:09:55;8.17;;;4.20;;
47844;SDS011;33605;48.822;8.796;2023-04-07T08:12:21;5.70;;;3.80;;
47844;SDS011;33605;48.822;8.796;2023-04-07T08:14:47;6.07;;;4.13;;
47844;SDS011;33605;48.822;8.796;2023-04-07T08:17:14;8.17;;;4.77;;
47844;SDS011;33605;48.822;8.796;2023-04-07T08:19:40;4.70;;;3.83;;
47844;SDS011;33605;48.822;8.796;2023-04-07T08:22:06;6.20;;;3.80;;
47844;SDS011;33605;48.822;8.796;2023-04-07T08:24:32;4.53;;;3.47;;
47844;SDS011;33605;48.822;8.796;2023-04-07T08:26:58;4.37;;;3.60;;
47844;SDS011;33605;48.822;8.796;2023-04-07T08:29:25;5.90;;;3.70;;
47844;SDS011;33605;48.822;8.796;2023-04-07T08:31:51;5.10;;;3.60;;
47844;SDS011;33605;48.822;8.796;2023-04-07T08:34:20;5.10;;;3.20;;
47844;SDS011;33605;48.822;8.796;2023-04-07T08:36:46;6.60;;;3.47;;
47844;SDS011;33605;48.822;8.796;2023-04-07T08:39:12;6.53;;;3.57;;
47844;SDS011;33605;48.822;8.796;2023-04-07T08:41:39;4.07;;;2.87;;
47844;SDS011;33605;48.822;8.796;2023-04-07T08:44:08;6.50;;;3.50;;
47844;SDS011;33605;48.822;8.796;2023-04-07T08:46:38;4.00;;;3.00;;
47844;SDS011;33605;48.822;8.796;2023-04-07T08:49:07;4.13;;;3.23;;
47844;SDS011;33605;48.822;8.796;2023-04-07T08:51:34;6.50;;;4.30;;
47844;SDS011;33605;48.822;8.796;2023-04-07T08:54:09;8.73;;;4.33;;
47844;SDS011;33605;48.822;8.796;2023-04-07T08:56:37;3.57;;;3.10;;
47844;SDS011;33605;48.822;8.796;2023-04-07T08:59:05;7.67;;;3.70;;
47844;SDS011;33605;48.822;8.796;2023-04-07T09:01:31;3.90;;;3.43;;
47844;SDS011;33605;48.822;8.796;2023-04-07T09:03:59;3.70;;;2.97;;
47844;SDS011;33605;48.822;8.796;2023-04-07T09:06:30;3.77;;;2.70;;
47844;SDS011;33605;48.822;8.796;2023-04-07T09:08:59;2.83;;;2.30;;
47844;SDS011;33605;48.822;8.796;2023-04-07T09:11:26;5.90;;;3.23;;
47844;SDS011;33605;48.822;8.796;2023-04-07T09:13:52;5.50;;;3.20;;
47844;SDS011;33605;48.822;8.796;2023-04-07T09:16:19;5.03;;;3.20;;
47844;SDS011;33605;48.822;8.796;2023-04-07T09:18:45;4.13;;;2.73;;
47844;SDS011;33605;48.822;8.796;2023-04-07T09:21:11;2.53;;;2.33;;
47844;SDS011;33605;48.822;8.796;2023-04-07T09:23:38;3.97;;;2.50;;
47844;SDS011;33605;48.822;8.796;2023-04-07T09:26:17;4.43;;;3.03;;
47844;SDS011;33605;48.822;8.796;2023-04-07T09:28:48;4.23;;;2.83;;
47844;SDS011;33605;48.822;8.796;2023-04-07T09:31:17;5.00;;;3.00;;
47844;SDS011;33605;48.822;8.796;2023-04-07T09:33:45;2.77;;;2.53;;
47844;SDS011;33605;48.822;8.796;2023-04-07T09:36:14;4.13;;;2.50;;
47844;SDS011;33605;48.822;8.796;2023-04-07T09:38:40;3.80;;;3.37;;
47844;SDS011;33605;48.822;8.796;2023-04-07T09:41:08;5.53;;;2.70;;
47844;SDS011;33605;48.822;8.796;2023-04-07T09:43:35;3.03;;;2.10;;
47844;SDS011;33605;48.822;8.796;2023-04-07T09:46:09;4.10;;;2.40;;
47844;SDS011;33605;48.822;8.796;2023-04-07T09:48:35;3.80;;;2.17;;
47844;SDS011;33605;48.822;8.796;2023-04-07T09:51:07;3.90;;;2.50;;
47844;SDS011;33605;48.822;8.796;2023-04-07T09:53:44;2.43;;;2.17;;
47844;SDS011;33605;48.822;8.796;2023-04-07T09:56:20;4.83;;;2.70;;
47844;SDS011;33605;48.822;8.796;2023-04-07T09:58:47;3.70;;;2.50;;
47844;SDS011;33605;48.822;8.796;2023-04-07T10:01:16;3.30;;;2.37;;
47844;SDS011;33605;48.822;8.796;2023-04-07T10:03:42;4.10;;;2.40;;
47844;SDS011;33605;48.822;8.796;2023-04-07T10:06:08;3.90;;;2.70;;
47844;SDS011;33605;48.822;8.796;2023-04-07T10:08:36;4.30;;;2.70;;
47844;SDS011;33605;48.822;8.796;2023-04-07T10:11:05;4.47;;;2.50;;
47844;SDS011;33605;48.822;8.796;2023-04-07T10:13:34;3.60;;;2.50;;
47844;SDS011;33605;48.822;8.796;2023-04-07T10:16:02;3.80;;;2.20;;
47844;SDS011;33605;48.822;8.796;2023-04-07T10:18:30;4.80;;;1.90;;
47844;SDS011;33605;48.822;8.796;2023-04-07T10:21:06;3.23;;;2.53;;
47844;SDS011;33605;48.822;8.796;2023-04-07T10:23:39;3.10;;;2.10;;
47844;SDS011;33605;48.822;8.796;2023-04-07T10:26:08;4.83;;;2.33;;
47844;SDS011;33605;48.822;8.796;2023-04-07T10:28:36;3.40;;;2.53;;
47844;SDS011;33605;48.822;8.796;2023-04-07T10:31:03;3.43;;;2.30;;
47844;SDS011;33605;48.822;8.796;2023-04-07T10:33:49;3.20;;;2.13;;
47844;SDS011;33605;48.822;8.796;2023-04-07T10:36:18;3.37;;;2.53;;
47844;SDS011;33605;48.822;8.796;2023-04-07T10:41:30;3.10;;;2.27;;
47844;SDS011;33605;48.822;8.796;2023-04-07T10:44:00;3.33;;;2.13;;
47844;SDS011;33605;48.822;8.796;2023-04-07T10:49:10;4.80;;;2.80;;
47844;SDS011;33605;48.822;8.796;2023-04-07T10:51:37;3.30;;;2.93;;
47844;SDS011;33605;48.822;8.796;2023-04-07T10:54:19;4.73;;;2.30;;
47844;SDS011;33605;48.822;8.796;2023-04-07T10:59:28;8.80;;;2.30;;
47844;SDS011;33605;48.822;8.796;2023-04-07T11:04:39;4.90;;;2.23;;
47844;SDS011;33605;48.822;8.796;2023-04-07T11:07:06;5.03;;;3.83;;
47844;SDS011;33605;48.822;8.796;2023-04-07T11:09:32;5.50;;;3.50;;
47844;SDS011;33605;48.822;8.796;2023-04-07T11:11:58;5.40;;;2.97;;
47844;SDS011;33605;48.822;8.796;2023-04-07T11:14:27;3.67;;;2.80;;
47844;SDS011;33605;48.822;8.796;2023-04-07T11:16:54;3.93;;;3.07;;
47844;SDS011;33605;48.822;8.796;2023-04-07T11:19:20;3.37;;;2.40;;
47844;SDS011;33605;48.822;8.796;2023-04-07T11:21:46;3.57;;;2.90;;
47844;SDS011;33605;48.822;8.796;2023-04-07T11:24:30;8.43;;;4.80;;
47844;SDS011;33605;48.822;8.796;2023-04-07T11:26:56;3.87;;;2.93;;
47844;SDS011;33605;48.822;8.796;2023-04-07T11:29:29;5.57;;;4.10;;
47844;SDS011;33605;48.822;8.796;2023-04-07T11:31:59;3.17;;;2.87;;
47844;SDS011;33605;48.822;8.796;2023-04-07T11:34:29;4.27;;;2.57;;
47844;SDS011;33605;48.822;8.796;2023-04-07T11:36:55;3.87;;;2.77;;
47844;SDS011;33605;48.822;8.796;2023-04-07T11:39:24;4.30;;;2.57;;
47844;SDS011;33605;48.822;8.796;2023-04-07T11:41:59;2.37;;;2.17;;
47844;SDS011;33605;48.822;8.796;2023-04-07T11:44:25;2.83;;;2.30;;
47844;SDS011;33605;48.822;8.796;2023-04-07T11:46:51;2.77;;;2.23;;
47844;SDS011;33605;48.822;8.796;2023-04-07T11:49:18;4.13;;;2.70;;
47844;SDS011;33605;48.822;8.796;2023-04-07T11:51:44;2.63;;;2.40;;
47844;SDS011;33605;48.822;8.796;2023-04-07T11:54:11;4.17;;;3.13;;
47844;SDS011;33605;48.822;8.796;2023-04-07T11:56:44;5.40;;;3.57;;
47844;SDS011;33605;48.822;8.796;2023-04-07T11:59:20;3.83;;;2.90;;
47844;SDS011;33605;48.822;8.796;2023-04-07T12:01:47;2.43;;;2.23;;
47844;SDS011;33605;48.822;8.796;2023-04-07T12:04:14;3.77;;;3.10;;
47844;SDS011;33605;48.822;8.796;2023-04-07T12:06:40;4.57;;;2.60;;
47844;SDS011;33605;48.822;8.796;2023-04-07T12:11:51;3.10;;;2.90;;
47844;SDS011;33605;48.822;8.796;2023-04-07T12:14:17;3.00;;;2.47;;
47844;SDS011;33605;48.822;8.796;2023-04-07T12:16:44;3.90;;;2.50;;
47844;SDS011;33605;48.822;8.796;2023-04-07T12:19:10;3.60;;;2.23;;
47844;SDS011;33605;48.822;8.796;2023-04-07T12:21:36;3.40;;;2.63;;
47844;SDS011;33605;48.822;8.796;2023-04-07T12:24:02;3.07;;;1.73;;
47844;SDS011;33605;48.822;8.796;2023-04-07T12:26:28;2.80;;;1.87;;
47844;SDS011;33605;48.822;8.796;2023-04-07T12:28:54;3.03;;;1.90;;
47844;SDS011;33605;48.822;8.796;2023-04-07T12:31:29;3.50;;;1.57;;
47844;SDS011;33605;48.822;8.796;2023-04-07T12:33:54;6.93;;;2.00;;
47844;SDS011;33605;48.822;8.796;2023-04-07T12:36:20;4.17;;;2.13;;
47844;SDS011;33605;48.822;8.796;2023-04-07T12:38:47;2.13;;;1.67;;
47844;SDS011;33605;48.822;8.796;2023-04-07T12:41:13;1.93;;;1.70;;
47844;SDS011;33605;48.822;8.796;2023-04-07T12:43:39;2.70;;;2.50;;
47844;SDS011;33605;48.822;8.796;2023-04-07T12:46:05;4.40;;;2.10;;
47844;SDS011;33605;48.822;8.796;2023-04-07T12:48:31;3.10;;;2.23;;
47844;SDS011;33605;48.822;8.796;2023-04-07T12:50:57;3.47;;;1.80;;
47844;SDS011;33605;48.822;8.796;2023-04-07T12:53:23;3.27;;;2.63;;
47844;SDS011;33605;48.822;8.796;2023-04-07T12:55:49;6.97;;;3.70;;
47844;SDS011;33605;48.822;8.796;2023-04-07T12:58:16;6.67;;;4.30;;
47844;SDS011;33605;48.822;8.796;2023-04-07T13:00:46;4.03;;;3.37;;
47844;SDS011;33605;48.822;8.796;2023-04-07T13:03:12;4.13;;;3.73;;
47844;SDS011;33605;48.822;8.796;2023-04-07T13:05:38;5.87;;;3.70;;
47844;SDS011;33605;48.822;8.796;2023-04-07T13:08:07;6.20;;;3.70;;
47844;SDS011;33605;48.822;8.796;2023-04-07T13:10:34;6.63;;;4.77;;
47844;SDS011;33605;48.822;8.796;2023-04-07T13:13:00;4.77;;;4.30;;
47844;SDS011;33605;48.822;8.796;2023-04-07T13:15:26;5.40;;;3.57;;
47844;SDS011;33605;48.822;8.796;2023-04-07T13:17:52;4.20;;;3.33;;
47844;SDS011;33605;48.822;8.796;2023-04-07T13:20:19;5.93;;;3.57;;
47844;SDS011;33605;48.822;8.796;2023-04-07T13:22:45;4.10;;;3.63;;
47844;SDS011;33605;48.822;8.796;2023-04-07T13:25:11;5.50;;;4.60;;
47844;SDS011;33605;48.822;8.796;2023-04-07T13:27:37;6.30;;;4.47;;
47844;SDS011;33605;48.822;8.796;2023-04-07T13:30:03;6.70;;;3.90;;
47844;SDS011;33605;48.822;8.796;2023-04-07T13:32:30;4.47;;;4.07;;
47844;SDS011;33605;48.822;8.796;2023-04-07T13:34:56;6.43;;;4.80;;
47844;SDS011;33605;48.822;8.796;2023-04-07T13:37:22;5.50;;;3.83;;
47844;SDS011;33605;48.822;8.796;2023-04-07T13:39:48;5.27;;;4.23;;
47844;SDS011;33605;48.822;8.796;2023-04-07T13:42:14;4.90;;;4.20;;
47844;SDS011;33605;48.822;8.796;2023-04-07T13:44:44;6.10;;;4.00;;
47844;SDS011;33605;48.822;8.796;2023-04-07T13:47:12;8.93;;;4.20;;
47844;SDS011;33605;48.822;8.796;2023-04-07T13:49:43;5.60;;;4.30;;
47844;SDS011;33605;48.822;8.796;2023-04-07T13:52:09;4.87;;;4.10;;
47844;SDS011;33605;48.822;8.796;2023-04-07T13:54:35;5.30;;;4.00;;
47844;SDS011;33605;48.822;8.796;2023-04-07T13:57:02;5.37;;;4.13;;
47844;SDS011;33605;48.822;8.796;2023-04-07T13:59:28;5.63;;;3.67;;
47844;SDS011;33605;48.822;8.796;2023-04-07T14:01:55;6.60;;;4.00;;
47844;SDS011;33605;48.822;8.796;2023-04-07T14:04:21;6.10;;;4.67;;
47844;SDS011;33605;48.822;8.796;2023-04-07T14:06:47;5.10;;;3.37;;
47844;SDS011;33605;48.822;8.796;2023-04-07T14:09:13;4.53;;;3.40;;
47844;SDS011;33605;48.822;8.796;2023-04-07T14:11:39;4.33;;;3.50;;
47844;SDS011;33605;48.822;8.796;2023-04-07T14:14:05;46.93;;;21.03;;
47844;SDS011;33605;48.822;8.796;2023-04-07T14:16:31;20.53;;;10.20;;
47844;SDS011;33605;48.822;8.796;2023-04-07T14:18:57;6.20;;;4.50;;
47844;SDS011;33605;48.822;8.796;2023-04-07T14:21:23;3.83;;;3.43;;
47844;SDS011;33605;48.822;8.796;2023-04-07T14:23:51;6.10;;;4.50;;
47844;SDS011;33605;48.822;8.796;2023-04-07T14:26:17;5.50;;;3.97;;
47844;SDS011;33605;48.822;8.796;2023-04-07T14:28:43;6.47;;;3.53;;
47844;SDS011;33605;48.822;8.796;2023-04-07T14:31:13;4.90;;;3.70;;
47844;SDS011;33605;48.822;8.796;2023-04-07T14:33:40;4.30;;;3.90;;
47844;SDS011;33605;48.822;8.796;2023-04-07T14:36:06;4.30;;;3.63;;
47844;SDS011;33605;48.822;8.796;2023-04-07T14:38:32;4.73;;;3.60;;
47844;SDS011;33605;48.822;8.796;2023-04-07T14:40:58;5.30;;;3.80;;
47844;SDS011;33605;48.822;8.796;2023-04-07T14:43:25;10.03;;;4.27;;
47844;SDS011;33605;48.822;8.796;2023-04-07T14:45:51;4.03;;;3.63;;
47844;SDS011;33605;48.822;8.796;2023-04-07T14:48:17;6.00;;;3.90;;
47844;SDS011;33605;48.822;8.796;2023-04-07T14:50:44;4.27;;;3.87;;
47844;SDS011;33605;48.822;8.796;2023-04-07T14:53:10;3.93;;;3.63;;
47844;SDS011;33605;48.822;8.796;2023-04-07T14:55:36;5.80;;;3.67;;
47844;SDS011;33605;48.822;8.796;2023-04-07T14:58:02;8.43;;;4.47;;
47844;SDS011;33605;48.822;8.796;2023-04-07T15:00:28;7.13;;;5.03;;